createdAt,value
2017-08-25T00:00:07.130Z,92.02
2017-08-25T00:02:35.013Z,92.04
2017-08-25T00:05:02.877Z,92.27
2017-08-25T00:07:30.738Z,92.37
2017-08-25T00:09:58.545Z,92.49
2017-08-25T00:12:26.343Z,92.69
2017-08-25T00:14:54.177Z,92.73
2017-08-25T00:17:22.016Z,92.78
2017-08-25T00:19:49.854Z,92.69
2017-08-25T00:22:17.656Z,92.71
2017-08-25T00:24:45.483Z,92.77
2017-08-25T00:27:13.307Z,92.89
2017-08-25T00:29:41.147Z,92.73
2017-08-25T00:32:08.949Z,92.82
2017-08-25T00:34:36.792Z,93.01
2017-08-25T00:37:04.623Z,93.24
2017-08-25T00:39:32.396Z,93.42
2017-08-25T00:42:00.236Z,93.43
2017-08-25T00:44:28.015Z,93.43
2017-08-25T00:46:55.873Z,93.54
2017-08-25T00:49:23.675Z,93.68
2017-08-25T00:51:52.488Z,93.88
2017-08-25T00:54:20.285Z,94.05
2017-08-25T00:56:48.153Z,94.16
2017-08-25T00:59:15.937Z,93.94
2017-08-25T01:01:43.777Z,93.39
2017-08-25T01:04:11.565Z,93.48
2017-08-25T01:06:39.408Z,93.41
2017-08-25T01:09:07.193Z,93.23
2017-08-25T01:11:35.049Z,93.02
2017-08-25T01:14:02.842Z,92.79
2017-08-25T01:16:30.682Z,92.56
2017-08-25T01:18:58.449Z,92.37
2017-08-25T01:21:26.262Z,92.39
2017-08-25T01:23:54.054Z,92.18
2017-08-25T01:26:21.888Z,92.23
2017-08-25T01:28:49.767Z,92.17
2017-08-25T01:31:17.607Z,92.19
2017-08-25T01:33:45.495Z,92.42
2017-08-25T01:36:13.322Z,92.37
2017-08-25T01:38:41.172Z,92.26
2017-08-25T01:41:08.984Z,92.24
2017-08-25T01:43:36.901Z,92.27
2017-08-25T01:46:04.723Z,92.34
2017-08-25T01:48:32.562Z,92.27
2017-08-25T01:51:00.441Z,92.35
2017-08-25T01:53:28.265Z,92.30
2017-08-25T01:55:56.156Z,92.17
2017-08-25T01:58:23.999Z,92.15
2017-08-25T02:00:51.888Z,92.04
2017-08-25T02:03:19.700Z,92.12
2017-08-25T02:05:47.540Z,91.85
2017-08-25T02:08:15.337Z,91.51
2017-08-25T02:10:43.177Z,91.75
2017-08-25T02:13:10.966Z,91.54
2017-08-25T02:15:38.846Z,91.40
2017-08-25T02:18:06.643Z,91.28
2017-08-25T02:20:34.493Z,91.29
2017-08-25T02:23:02.345Z,91.27
2017-08-25T02:25:30.141Z,91.23
2017-08-25T02:27:57.964Z,90.99
2017-08-25T02:30:25.770Z,90.98
2017-08-25T02:32:53.605Z,90.85
2017-08-25T02:35:21.385Z,90.96
2017-08-25T02:37:49.220Z,91.42
2017-08-25T02:40:17.006Z,91.51
2017-08-25T02:42:44.882Z,91.56
2017-08-25T02:45:12.664Z,92.38
2017-08-25T02:47:40.503Z,92.44
2017-08-25T02:50:08.285Z,92.78
2017-08-25T02:52:36.131Z,93.45
2017-08-25T02:55:03.930Z,93.22
2017-08-25T02:57:31.760Z,92.76
2017-08-25T02:59:59.544Z,92.90
2017-08-25T03:02:27.345Z,93.30
2017-08-25T03:04:55.172Z,93.57
2017-08-25T03:07:22.972Z,93.61
2017-08-25T03:09:50.771Z,93.58
2017-08-25T03:12:18.564Z,93.78
2017-08-25T03:14:46.405Z,94.12
2017-08-25T03:17:14.237Z,94.09
2017-08-25T03:19:42.054Z,93.75
2017-08-25T03:22:09.832Z,93.85
2017-08-25T03:24:37.689Z,94.04
2017-08-25T03:27:05.492Z,94.18
2017-08-25T03:29:33.263Z,94.36
2017-08-25T03:32:01.088Z,94.42
2017-08-25T03:34:28.883Z,94.36
2017-08-25T03:36:56.726Z,94.41
2017-08-25T03:39:24.513Z,94.61
2017-08-25T03:41:52.330Z,94.71
2017-08-25T03:44:20.115Z,94.69
2017-08-25T03:46:47.941Z,94.77
2017-08-25T03:49:15.752Z,94.93
2017-08-25T03:51:43.606Z,95.08
2017-08-25T03:54:11.375Z,95.09
2017-08-25T03:56:39.225Z,95.02
2017-08-25T03:59:06.996Z,94.60
2017-08-25T04:01:34.781Z,94.17
2017-08-25T04:04:02.529Z,93.61
2017-08-25T04:06:30.326Z,93.13
2017-08-25T04:08:58.149Z,93.27
2017-08-25T04:11:25.958Z,93.31
2017-08-25T04:13:53.789Z,93.34
2017-08-25T04:16:21.608Z,93.80
2017-08-25T04:18:49.429Z,93.81
2017-08-25T04:21:17.234Z,93.63
2017-08-25T04:23:45.133Z,93.84
2017-08-25T04:26:12.950Z,94.18
2017-08-25T04:28:40.733Z,94.32
2017-08-25T04:31:08.549Z,94.54
2017-08-25T04:33:36.337Z,94.73
2017-08-25T04:36:04.171Z,94.89
2017-08-25T04:38:31.986Z,94.93
2017-08-25T04:40:59.883Z,94.63
2017-08-25T04:43:27.700Z,94.38
2017-08-25T04:45:55.555Z,93.87
2017-08-25T04:48:23.348Z,93.19
2017-08-25T04:50:51.160Z,92.52
2017-08-25T04:53:18.925Z,92.64
2017-08-25T04:55:46.746Z,92.46
2017-08-25T04:58:14.546Z,91.76
2017-08-25T05:00:42.351Z,91.07
2017-08-25T05:03:10.192Z,89.95
2017-08-25T05:05:37.995Z,88.95
2017-08-25T05:08:05.818Z,88.59
2017-08-25T05:10:33.591Z,89.17
2017-08-25T05:13:01.436Z,89.71
2017-08-25T05:15:29.240Z,89.94
2017-08-25T05:17:57.101Z,89.69
2017-08-25T05:20:24.888Z,89.39
2017-08-25T05:22:52.710Z,89.29
2017-08-25T05:25:20.509Z,89.72
2017-08-25T05:27:48.375Z,89.78
2017-08-25T05:30:16.177Z,89.69
2017-08-25T05:32:43.947Z,89.54
2017-08-25T05:35:11.796Z,89.17
2017-08-25T05:37:39.593Z,89.33
2017-08-25T05:40:07.439Z,89.47
2017-08-25T05:42:35.275Z,89.31
2017-08-25T05:45:03.114Z,89.28
2017-08-25T05:47:30.898Z,89.16
2017-08-25T05:49:58.733Z,89.18
2017-08-25T05:52:26.537Z,89.00
2017-08-25T05:54:54.365Z,88.94
2017-08-25T05:57:22.185Z,89.04
2017-08-25T05:59:50.020Z,89.09
2017-08-25T06:02:17.850Z,88.90
2017-08-25T06:04:45.689Z,88.40
2017-08-25T06:07:13.512Z,88.28
2017-08-25T06:09:41.296Z,88.35
2017-08-25T06:12:09.169Z,88.49
2017-08-25T06:14:36.972Z,88.44
2017-08-25T06:17:04.885Z,88.16
2017-08-25T06:19:32.718Z,88.00
2017-08-25T06:22:00.556Z,87.86
2017-08-25T06:24:28.361Z,87.95
2017-08-25T06:26:56.241Z,88.05
2017-08-25T06:29:24.081Z,87.54
2017-08-25T06:31:51.897Z,87.51
2017-08-25T06:34:19.685Z,87.32
2017-08-25T06:36:47.496Z,87.19
2017-08-25T06:39:15.302Z,87.48
2017-08-25T06:41:43.084Z,87.00
2017-08-25T06:44:10.888Z,87.21
2017-08-25T06:46:38.679Z,87.15
2017-08-25T06:49:06.517Z,87.32
2017-08-25T06:51:34.329Z,86.74
2017-08-25T06:54:02.168Z,87.27
2017-08-25T06:56:29.954Z,86.82
2017-08-25T06:58:57.800Z,86.77
2017-08-25T07:01:25.589Z,86.19
2017-08-25T07:03:53.430Z,86.03
2017-08-25T07:06:21.205Z,85.93
2017-08-25T07:08:49.340Z,85.37
2017-08-25T07:11:17.148Z,84.69
2017-08-25T07:13:44.907Z,84.77
2017-08-25T07:16:12.802Z,84.73
2017-08-25T07:18:40.616Z,83.83
2017-08-25T07:21:08.457Z,83.85
2017-08-25T07:23:36.283Z,84.19
2017-08-25T07:26:04.144Z,83.39
2017-08-25T07:28:31.890Z,83.80
2017-08-25T07:30:59.782Z,83.42
2017-08-25T07:33:27.577Z,83.05
2017-08-25T07:35:55.456Z,83.70
2017-08-25T07:38:23.280Z,82.52
2017-08-25T07:40:51.115Z,83.02
2017-08-25T07:43:18.973Z,83.14
2017-08-25T07:45:46.788Z,82.44
2017-08-25T07:48:14.650Z,81.71
2017-08-25T07:50:42.535Z,81.17
2017-08-25T07:53:10.409Z,81.23
2017-08-25T07:55:38.211Z,80.43
2017-08-25T07:58:06.087Z,80.23
2017-08-25T08:00:33.899Z,80.17
2017-08-25T08:03:01.795Z,79.20
2017-08-25T08:05:29.623Z,79.87
2017-08-25T08:07:57.494Z,78.29
2017-08-25T08:10:25.294Z,77.60
2017-08-25T08:12:53.072Z,75.32
2017-08-25T08:15:20.917Z,76.01
2017-08-25T08:17:48.779Z,75.56
2017-08-25T08:20:16.672Z,75.65
2017-08-25T08:22:44.488Z,74.06
2017-08-25T08:25:12.338Z,72.62
2017-08-25T08:27:40.068Z,71.99
2017-08-25T08:30:07.966Z,73.18
2017-08-25T08:32:35.802Z,73.39
2017-08-25T08:35:03.664Z,71.25
2017-08-25T08:37:31.487Z,73.34
2017-08-25T08:39:59.380Z,71.71
2017-08-25T08:42:27.201Z,71.78
2017-08-25T08:44:54.996Z,69.73
2017-08-25T08:47:22.781Z,69.65
2017-08-25T08:49:50.890Z,70.58
2017-08-25T08:52:18.773Z,68.29
2017-08-25T08:54:46.598Z,69.03
2017-08-25T08:57:14.495Z,69.17
2017-08-25T08:59:42.395Z,68.65
2017-08-25T09:02:10.252Z,67.31
2017-08-25T09:04:38.105Z,66.77
2017-08-25T09:07:05.893Z,65.09
2017-08-25T09:09:33.739Z,65.84
2017-08-25T09:12:01.620Z,67.39
2017-08-25T09:14:29.438Z,68.42
2017-08-25T09:16:57.431Z,68.92
2017-08-25T09:19:25.194Z,68.39
2017-08-25T09:21:53.047Z,67.03
2017-08-25T09:24:20.922Z,67.36
2017-08-25T09:26:48.746Z,65.91
2017-08-25T09:29:16.604Z,66.22
2017-08-25T09:31:44.445Z,66.56
2017-08-25T09:34:12.248Z,62.58
2017-08-25T09:36:40.062Z,64.53
2017-08-25T09:39:07.925Z,63.87
2017-08-25T09:41:35.732Z,66.27
2017-08-25T09:44:03.600Z,64.67
2017-08-25T09:46:31.438Z,64.81
2017-08-25T09:48:59.283Z,66.08
2017-08-25T09:51:27.151Z,66.74
2017-08-25T09:53:55.016Z,67.22
2017-08-25T09:56:22.892Z,67.43
2017-08-25T09:58:50.788Z,67.12
2017-08-25T10:01:18.605Z,65.34
2017-08-25T10:03:46.409Z,64.22
2017-08-25T10:06:14.272Z,64.40
2017-08-25T10:08:42.078Z,65.05
2017-08-25T10:11:09.925Z,64.64
2017-08-25T10:13:37.800Z,65.44
2017-08-25T10:16:05.714Z,65.45
2017-08-25T10:18:33.585Z,65.64
2017-08-25T10:21:01.509Z,67.33
2017-08-25T10:23:29.336Z,66.18
2017-08-25T10:25:57.261Z,67.34
2017-08-25T10:28:25.131Z,65.17
2017-08-25T10:30:53.045Z,65.44
2017-08-25T10:33:45.581Z,65.44
2017-08-25T10:36:25.105Z,64.10
2017-08-25T10:39:04.761Z,63.17
2017-08-25T10:44:48.605Z,64.69
2017-08-25T10:47:16.473Z,64.58
2017-08-25T10:49:44.306Z,64.10
2017-08-25T10:52:12.195Z,64.33
2017-08-25T10:54:40.029Z,64.37
2017-08-25T10:57:07.879Z,63.97
2017-08-25T10:59:35.702Z,64.41
2017-08-25T11:02:03.600Z,64.30
2017-08-25T11:04:31.424Z,64.32
2017-08-25T11:06:59.247Z,65.52
2017-08-25T11:09:27.133Z,64.99
2017-08-25T11:11:54.951Z,65.11
2017-08-25T11:14:22.809Z,65.63
2017-08-25T11:16:50.671Z,66.33
2017-08-25T11:19:18.528Z,66.22
2017-08-25T11:21:46.324Z,65.13
2017-08-25T11:24:14.244Z,65.08
2017-08-25T11:26:42.043Z,66.46
2017-08-25T11:29:09.925Z,65.79
2017-08-25T11:31:37.718Z,64.31
2017-08-25T11:34:05.586Z,65.34
2017-08-25T11:36:33.380Z,65.01
2017-08-25T11:39:01.230Z,61.11
2017-08-25T11:41:29.035Z,63.12
2017-08-25T11:43:56.852Z,60.01
2017-08-25T11:46:25.552Z,62.28
2017-08-25T11:48:53.372Z,59.58
2017-08-25T11:51:21.221Z,62.13
2017-08-25T11:53:49.016Z,61.08
2017-08-25T11:56:16.861Z,59.83
2017-08-25T11:58:44.674Z,59.35
2017-08-25T12:01:12.527Z,60.97
2017-08-25T12:03:40.336Z,59.69
2017-08-25T12:06:08.206Z,60.68
2017-08-25T12:08:36.039Z,58.35
2017-08-25T12:11:03.934Z,60.35
2017-08-25T12:13:31.745Z,57.40
2017-08-25T12:15:59.621Z,59.70
2017-08-25T12:18:27.513Z,60.25
2017-08-25T12:20:55.338Z,58.83
2017-08-25T12:23:23.191Z,60.66
2017-08-25T12:25:50.996Z,60.37
2017-08-25T12:28:18.858Z,60.32
2017-08-25T12:30:46.692Z,58.14
2017-08-25T12:33:14.596Z,59.57
2017-08-25T12:35:42.409Z,60.61
2017-08-25T12:38:10.253Z,59.99
2017-08-25T12:40:38.040Z,59.86
2017-08-25T12:43:05.892Z,60.65
2017-08-25T12:45:33.717Z,60.43
2017-08-25T12:48:01.599Z,60.03
2017-08-25T12:50:29.412Z,59.72
2017-08-25T12:52:57.225Z,58.42
2017-08-25T12:55:25.086Z,59.36
2017-08-25T12:57:52.911Z,59.61
2017-08-25T13:00:20.757Z,58.64
2017-08-25T13:02:48.582Z,58.65
2017-08-25T13:05:16.437Z,59.90
2017-08-25T13:07:44.249Z,58.46
2017-08-25T13:10:12.131Z,56.52
2017-08-25T13:12:40.061Z,57.65
2017-08-25T13:15:07.938Z,58.84
2017-08-25T13:17:35.796Z,58.29
2017-08-25T13:20:03.776Z,58.92
2017-08-25T13:22:31.600Z,58.83
2017-08-25T13:24:59.485Z,57.35
2017-08-25T13:27:27.299Z,58.74
2017-08-25T13:29:55.123Z,60.47
2017-08-25T13:32:22.976Z,60.24
2017-08-25T13:34:50.763Z,60.13
2017-08-25T13:37:18.617Z,59.65
2017-08-25T13:39:46.443Z,59.96
2017-08-25T13:42:14.196Z,60.83
2017-08-25T13:44:42.029Z,61.39
2017-08-25T13:47:09.882Z,61.27
2017-08-25T13:49:37.710Z,61.60
2017-08-25T13:52:05.573Z,61.75
2017-08-25T13:54:33.406Z,63.18
2017-08-25T13:57:01.257Z,62.48
2017-08-25T13:59:33.043Z,59.55
2017-08-25T14:02:00.857Z,58.27
2017-08-25T14:04:28.719Z,58.92
2017-08-25T14:06:56.563Z,59.64
2017-08-25T14:09:24.436Z,60.27
2017-08-25T14:11:52.241Z,58.60
2017-08-25T14:14:20.120Z,57.29
2017-08-25T14:16:47.990Z,58.36
2017-08-25T14:19:15.856Z,59.64
2017-08-25T14:21:43.699Z,60.51
2017-08-25T14:24:11.602Z,60.70
2017-08-25T14:26:39.488Z,60.79
2017-08-25T14:29:07.367Z,61.98
2017-08-25T14:31:35.181Z,61.05
2017-08-25T14:34:03.017Z,58.83
2017-08-25T14:36:30.885Z,59.01
2017-08-25T14:38:58.765Z,58.92
2017-08-25T14:41:26.573Z,61.32
2017-08-25T14:43:54.390Z,61.41
2017-08-25T14:46:22.244Z,61.09
2017-08-25T14:48:50.072Z,59.86
2017-08-25T14:51:17.938Z,60.48
2017-08-25T14:53:45.773Z,61.03
2017-08-25T14:56:13.649Z,60.86
2017-08-25T14:58:41.488Z,59.24
2017-08-25T15:01:09.385Z,58.81
2017-08-25T15:03:37.229Z,57.63
2017-08-25T15:06:05.133Z,59.69
2017-08-25T15:08:32.940Z,58.03
2017-08-25T15:11:00.825Z,57.73
2017-08-25T15:13:28.654Z,60.15
2017-08-25T15:15:56.530Z,59.22
2017-08-25T15:18:24.395Z,58.99
2017-08-25T15:20:52.225Z,58.58
2017-08-25T15:23:20.107Z,59.24
2017-08-25T15:25:47.921Z,57.36
2017-08-25T15:28:15.775Z,58.30
2017-08-25T15:30:43.612Z,57.81
2017-08-25T15:33:11.465Z,58.89
2017-08-25T15:35:39.270Z,57.30
2017-08-25T15:38:07.136Z,57.58
2017-08-25T15:40:34.931Z,58.60
2017-08-25T15:43:02.786Z,57.58
2017-08-25T15:45:30.573Z,56.54
2017-08-25T15:47:58.403Z,58.71
2017-08-25T15:50:26.249Z,60.10
2017-08-25T15:52:54.053Z,59.88
2017-08-25T15:55:21.944Z,61.04
2017-08-25T15:57:49.785Z,61.34
2017-08-25T16:00:17.679Z,62.13
2017-08-25T16:02:45.475Z,63.13
2017-08-25T16:05:13.349Z,63.16
2017-08-25T16:07:41.158Z,62.57
2017-08-25T16:10:09.012Z,63.44
2017-08-25T16:12:36.854Z,63.18
2017-08-25T16:15:04.718Z,62.97
2017-08-25T16:17:32.566Z,62.38
2017-08-25T16:20:00.424Z,61.92
2017-08-25T16:22:28.251Z,58.86
2017-08-25T16:24:56.086Z,60.29
2017-08-25T16:27:23.922Z,60.15
2017-08-25T16:29:52.200Z,61.68
2017-08-25T16:32:20.041Z,61.85
2017-08-25T16:34:47.841Z,62.97
2017-08-25T16:37:15.686Z,60.82
2017-08-25T16:39:43.485Z,61.61
2017-08-25T16:42:11.320Z,63.04
2017-08-25T16:44:39.130Z,62.82
2017-08-25T16:47:07.007Z,62.97
2017-08-25T16:49:34.817Z,63.54
2017-08-25T16:52:02.667Z,62.71
2017-08-25T16:54:30.505Z,61.71
2017-08-25T16:56:58.369Z,62.81
2017-08-25T16:59:26.169Z,63.39
2017-08-25T17:01:53.987Z,64.53
2017-08-25T17:04:21.863Z,65.17
2017-08-25T17:06:49.690Z,68.77
2017-08-25T17:09:17.536Z,66.77
2017-08-25T17:11:45.398Z,66.07
2017-08-25T17:14:13.235Z,65.73
2017-08-25T17:16:41.107Z,66.59
2017-08-25T17:19:09.012Z,66.20
2017-08-25T17:21:36.807Z,66.28
2017-08-25T17:24:04.667Z,69.73
2017-08-25T17:26:32.471Z,71.20
2017-08-25T17:29:00.357Z,71.13
2017-08-25T17:31:28.219Z,71.49
2017-08-25T17:33:56.130Z,72.87
2017-08-25T17:36:23.961Z,73.12
2017-08-25T17:38:51.771Z,74.02
2017-08-25T17:41:19.634Z,75.13
2017-08-25T17:43:47.449Z,74.93
2017-08-25T17:46:15.325Z,74.25
2017-08-25T17:48:43.145Z,74.22
2017-08-25T17:51:10.999Z,75.54
2017-08-25T17:53:38.835Z,75.39
2017-08-25T17:56:06.737Z,77.10
2017-08-25T17:58:34.557Z,78.49
2017-08-25T18:01:02.420Z,79.10
2017-08-25T18:03:30.250Z,79.79
2017-08-25T18:05:58.273Z,80.94
2017-08-25T18:08:26.086Z,81.24
2017-08-25T18:10:53.950Z,80.87
2017-08-25T18:13:21.760Z,80.35
2017-08-25T18:15:49.603Z,79.86
2017-08-25T18:18:17.422Z,80.03
2017-08-25T18:20:45.217Z,81.19
2017-08-25T18:23:13.100Z,82.16
2017-08-25T18:25:40.892Z,83.30
2017-08-25T18:28:08.729Z,84.30
2017-08-25T18:30:36.552Z,84.35
2017-08-25T18:33:04.433Z,83.87
2017-08-25T18:35:32.232Z,84.15
2017-08-25T18:38:00.054Z,84.53
2017-08-25T18:40:27.924Z,84.79
2017-08-25T18:42:55.777Z,85.21
2017-08-25T18:45:23.557Z,85.55
2017-08-25T18:47:51.384Z,85.74
2017-08-25T18:50:19.261Z,85.76
2017-08-25T18:52:47.057Z,86.22
2017-08-25T18:55:14.906Z,86.70
2017-08-25T18:57:42.696Z,86.95
2017-08-25T19:00:10.570Z,87.22
2017-08-25T19:02:38.380Z,87.50
2017-08-25T19:05:06.221Z,87.66
2017-08-25T19:07:34.015Z,87.88
2017-08-25T19:10:01.920Z,87.86
2017-08-25T19:12:29.700Z,88.02
2017-08-25T19:14:57.562Z,88.02
2017-08-25T19:17:25.388Z,88.07
2017-08-25T19:19:53.223Z,88.32
2017-08-25T19:22:20.989Z,88.75
2017-08-25T19:24:48.871Z,88.80
2017-08-25T19:27:16.688Z,88.78
2017-08-25T19:29:44.532Z,88.84
2017-08-25T19:32:12.310Z,88.54
2017-08-25T19:34:40.150Z,88.22
2017-08-25T19:37:07.861Z,88.19
2017-08-25T19:39:35.656Z,88.34
2017-08-25T19:42:05.255Z,88.65
2017-08-25T19:44:34.161Z,88.90
2017-08-25T19:47:03.807Z,88.78
2017-08-25T19:49:34.479Z,88.90
2017-08-25T19:52:03.479Z,88.95
2017-08-25T19:54:34.321Z,89.34
2017-08-25T19:57:03.950Z,89.55
2017-08-25T19:59:34.672Z,89.22
2017-08-25T20:02:07.355Z,89.23
2017-08-25T20:04:37.017Z,89.74
2017-08-25T20:07:05.824Z,90.36
2017-08-25T20:09:36.660Z,90.39
2017-08-25T20:12:06.612Z,90.37
2017-08-25T20:14:35.348Z,89.68
2017-08-25T20:17:04.630Z,89.37
2017-08-25T20:19:34.174Z,89.31
2017-08-25T20:22:03.900Z,89.37
2017-08-25T20:24:34.545Z,89.33
2017-08-25T20:27:03.112Z,89.25
2017-08-25T20:29:34.088Z,89.17
2017-08-25T20:32:04.027Z,89.29
2017-08-25T20:34:34.573Z,89.29
2017-08-25T20:37:05.013Z,89.28
2017-08-25T20:39:34.938Z,89.38
2017-08-25T20:42:02.819Z,89.50
2017-08-25T20:44:31.658Z,89.55
2017-08-25T20:47:01.160Z,89.91
2017-08-25T20:49:31.308Z,90.27
2017-08-25T20:52:00.247Z,90.62
2017-08-25T20:54:28.456Z,90.79
2017-08-25T20:56:57.839Z,90.28
2017-08-25T20:59:26.384Z,89.94
2017-08-25T21:01:54.641Z,90.49
2017-08-25T21:04:24.646Z,91.14
2017-08-25T21:06:54.188Z,91.32
2017-08-25T21:09:22.068Z,91.21
2017-08-25T21:11:53.745Z,91.06
2017-08-25T21:14:26.536Z,90.50
2017-08-25T21:16:56.860Z,89.68
2017-08-25T21:19:26.495Z,89.58
2017-08-25T21:21:56.371Z,89.48
2017-08-25T21:24:24.651Z,89.36
2017-08-25T21:26:55.273Z,90.72
2017-08-25T21:29:23.358Z,91.34
2017-08-25T21:31:52.051Z,91.75
2017-08-25T21:34:24.445Z,91.06
2017-08-25T21:36:54.805Z,90.13
2017-08-25T21:39:25.162Z,89.75
2017-08-25T21:41:54.838Z,89.78
2017-08-25T21:44:23.377Z,89.63
2017-08-25T21:46:52.375Z,89.70
2017-08-25T21:49:23.066Z,89.41
2017-08-25T21:51:53.675Z,89.64
2017-08-25T21:54:23.884Z,90.07
2017-08-25T21:56:54.259Z,90.12
2017-08-25T21:59:25.809Z,89.94
2017-08-25T22:01:54.938Z,89.76
2017-08-25T22:04:24.545Z,89.65
2017-08-25T22:06:54.236Z,89.58
2017-08-25T22:09:22.491Z,89.91
2017-08-25T22:11:50.457Z,89.79
2017-08-25T22:14:20.922Z,89.75
2017-08-25T22:16:49.813Z,89.74
2017-08-25T22:19:19.373Z,89.81
2017-08-25T22:21:48.987Z,90.03
2017-08-25T22:24:16.916Z,90.03
2017-08-25T22:26:45.973Z,90.22
2017-08-25T22:29:15.579Z,89.90
2017-08-25T22:31:43.907Z,89.68
2017-08-25T22:34:13.539Z,89.65
2017-08-25T22:36:43.645Z,89.77
2017-08-25T22:39:12.328Z,89.78
2017-08-25T22:41:42.877Z,90.14
2017-08-25T22:44:10.661Z,90.91
2017-08-25T22:46:39.219Z,91.23
2017-08-25T22:49:08.045Z,90.69
2017-08-25T22:51:36.583Z,90.04
2017-08-25T22:54:07.160Z,89.77
2017-08-25T22:56:36.166Z,89.63
2017-08-25T22:59:05.289Z,89.74
2017-08-25T23:01:37.577Z,90.02
2017-08-25T23:04:07.001Z,90.18
2017-08-25T23:06:36.180Z,89.92
2017-08-25T23:09:05.815Z,89.84
2017-08-25T23:11:33.823Z,89.82
2017-08-25T23:14:03.037Z,89.93
2017-08-25T23:16:33.576Z,90.17
2017-08-25T23:19:02.592Z,90.90
2017-08-25T23:21:31.317Z,90.99
2017-08-25T23:24:03.177Z,90.78
2017-08-25T23:26:31.278Z,90.76
2017-08-25T23:29:01.268Z,90.28
2017-08-25T23:31:29.547Z,90.14
2017-08-25T23:33:59.918Z,90.09
2017-08-25T23:36:28.853Z,89.99
2017-08-25T23:38:57.956Z,89.82
2017-08-25T23:41:28.701Z,89.72
2017-08-25T23:43:57.451Z,89.84
2017-08-25T23:46:27.571Z,90.28
2017-08-25T23:48:56.662Z,90.08
2017-08-25T23:51:27.080Z,89.65
2017-08-25T23:53:58.134Z,89.75
2017-08-25T23:56:28.053Z,89.92
2017-08-25T23:58:59.263Z,90.08
